sensor_id;sensor_type;location;lat;lon;timestamp;pressure;altitude;pressure_sealevel;temperature;humidity
49055;BME280;35405;52.344;14.530;2022-10-16T06:26:10;100582.50;;;14.19;100.00
49055;BME280;35405;52.344;14.530;2022-10-16T06:28:35;100581.88;;;14.23;100.00
49055;BME280;35405;52.344;14.530;2022-10-16T06:31:01;100595.91;;;14.30;100.00
49055;BME280;35405;52.344;14.530;2022-10-16T06:33:27;100593.81;;;14.35;100.00
49055;BME280;35405;52.344;14.530;2022-10-16T06:35:52;100600.91;;;14.36;100.00
49055;BME280;35405;52.344;14.530;2022-10-16T06:38:18;100598.78;;;14.33;100.00
49055;BME280;35405;52.344;14.530;2022-10-16T06:40:43;100600.72;;;14.33;100.00
49055;BME280;35405;52.344;14.530;2022-10-16T06:43:08;100601.69;;;14.28;100.00
49055;BME280;35405;52.344;14.530;2022-10-16T06:45:33;100592.81;;;14.23;100.00
49055;BME280;35405;52.344;14.530;2022-10-16T06:47:59;100608.09;;;14.15;100.00
49055;BME280;35405;52.344;14.530;2022-10-16T06:50:24;100619.50;;;14.08;100.00
49055;BME280;35405;52.344;14.530;2022-10-16T06:52:49;100639.44;;;14.09;100.00
49055;BME280;35405;52.344;14.530;2022-10-16T06:55:14;100636.88;;;14.12;100.00
49055;BME280;35405;52.344;14.530;2022-10-16T06:57:41;100637.00;;;14.07;100.00
49055;BME280;35405;52.344;14.530;2022-10-16T07:00:07;100645.84;;;14.04;100.00
49055;BME280;35405;52.344;14.530;2022-10-16T07:02:32;100643.78;;;14.10;100.00
49055;BME280;35405;52.344;14.530;2022-10-16T07:04:57;100636.28;;;14.24;100.00
49055;BME280;35405;52.344;14.530;2022-10-16T07:07:23;100644.97;;;14.35;100.00
49055;BME280;35405;52.344;14.530;2022-10-16T07:09:49;100640.03;;;14.46;100.00
49055;BME280;35405;52.344;14.530;2022-10-16T07:12:15;100645.84;;;14.53;100.00
49055;BME280;35405;52.344;14.530;2022-10-16T07:14:40;100652.16;;;14.53;100.00
49055;BME280;35405;52.344;14.530;2022-10-16T07:17:05;100643.72;;;14.50;100.00
49055;BME280;35405;52.344;14.530;2022-10-16T07:19:30;100647.28;;;14.50;100.00
49055;BME280;35405;52.344;14.530;2022-10-16T07:21:56;100647.94;;;14.56;100.00
49055;BME280;35405;52.344;14.530;2022-10-16T07:24:22;100647.66;;;14.57;100.00
49055;BME280;35405;52.344;14.530;2022-10-16T07:26:47;100660.56;;;14.66;100.00
49055;BME280;35405;52.344;14.530;2022-10-16T07:29:13;100672.63;;;14.73;100.00
49055;BME280;35405;52.344;14.530;2022-10-16T07:31:42;100690.88;;;14.86;100.00
49055;BME280;35405;52.344;14.530;2022-10-16T07:34:07;100680.41;;;15.06;100.00
49055;BME280;35405;52.344;14.530;2022-10-16T07:36:36;100690.88;;;15.21;100.00
49055;BME280;35405;52.344;14.530;2022-10-16T07:39:01;100692.81;;;15.29;100.00
49055;BME280;35405;52.344;14.530;2022-10-16T07:41:27;100699.72;;;15.53;100.00
49055;BME280;35405;52.344;14.530;2022-10-16T07:43:53;100699.50;;;15.93;100.00
49055;BME280;35405;52.344;14.530;2022-10-16T07:46:19;100705.59;;;16.16;100.00
49055;BME280;35405;52.344;14.530;2022-10-16T07:48:45;100718.56;;;16.36;100.00
49055;BME280;35405;52.344;14.530;2022-10-16T07:51:12;100723.78;;;16.59;100.00
49055;BME280;35405;52.344;14.530;2022-10-16T07:53:38;100723.25;;;16.65;100.00
49055;BME280;35405;52.344;14.530;2022-10-16T07:56:04;100723.38;;;16.39;100.00
49055;BME280;35405;52.344;14.530;2022-10-16T07:58:30;100724.78;;;16.16;100.00
49055;BME280;35405;52.344;14.530;2022-10-16T08:00:56;100727.69;;;16.11;100.00
49055;BME280;35405;52.344;14.530;2022-10-16T08:03:22;100721.81;;;16.30;100.00
49055;BME280;35405;52.344;14.530;2022-10-16T08:05:48;100726.56;;;16.50;100.00
49055;BME280;35405;52.344;14.530;2022-10-16T08:08:13;100727.94;;;16.65;100.00
49055;BME280;35405;52.344;14.530;2022-10-16T08:10:39;100739.06;;;16.77;100.00
49055;BME280;35405;52.344;14.530;2022-10-16T08:13:04;100731.00;;;17.02;100.00
49055;BME280;35405;52.344;14.530;2022-10-16T08:15:29;100735.16;;;17.50;100.00
49055;BME280;35405;52.344;14.530;2022-10-16T08:17:56;100744.47;;;17.78;100.00
49055;BME280;35405;52.344;14.530;2022-10-16T08:20:21;100749.75;;;17.83;100.00
49055;BME280;35405;52.344;14.530;2022-10-16T08:22:47;100732.97;;;17.76;100.00
49055;BME280;35405;52.344;14.530;2022-10-16T08:25:12;100730.41;;;17.71;100.00
49055;BME280;35405;52.344;14.530;2022-10-16T08:27:37;100739.41;;;17.80;100.00
49055;BME280;35405;52.344;14.530;2022-10-16T08:30:03;100740.16;;;18.02;100.00
49055;BME280;35405;52.344;14.530;2022-10-16T08:32:28;100741.13;;;18.31;100.00
49055;BME280;35405;52.344;14.530;2022-10-16T08:34:59;100745.28;;;18.49;100.00
49055;BME280;35405;52.344;14.530;2022-10-16T08:37:24;100740.44;;;18.34;100.00
49055;BME280;35405;52.344;14.530;2022-10-16T08:39:50;100734.56;;;18.23;100.00
49055;BME280;35405;52.344;14.530;2022-10-16T08:42:18;100738.00;;;18.08;100.00
49055;BME280;35405;52.344;14.530;2022-10-16T08:49:47;100742.88;;;18.47;100.00
49055;BME280;35405;52.344;14.530;2022-10-16T08:52:17;100748.84;;;18.62;100.00
49055;BME280;35405;52.344;14.530;2022-10-16T08:54:43;100751.16;;;18.72;100.00
49055;BME280;35405;52.344;14.530;2022-10-16T08:59:59;100777.56;;;18.73;100.00
49055;BME280;35405;52.344;14.530;2022-10-16T09:05:14;100774.66;;;19.18;100.00
49055;BME280;35405;52.344;14.530;2022-10-16T09:12:55;100755.75;;;19.05;100.00
49055;BME280;35405;52.344;14.530;2022-10-16T09:15:35;100766.50;;;19.10;100.00
49055;BME280;35405;52.344;14.530;2022-10-16T09:20:40;100782.81;;;19.15;100.00
49055;BME280;35405;52.344;14.530;2022-10-16T09:23:12;100778.59;;;18.93;100.00
49055;BME280;35405;52.344;14.530;2022-10-16T09:25:39;100782.97;;;18.94;100.00
49055;BME280;35405;52.344;14.530;2022-10-16T09:28:07;100780.28;;;19.10;100.00
49055;BME280;35405;52.344;14.530;2022-10-16T09:30:36;100779.59;;;19.13;100.00
49055;BME280;35405;52.344;14.530;2022-10-16T09:33:02;100788.13;;;19.20;100.00
49055;BME280;35405;52.344;14.530;2022-10-16T09:35:47;100788.94;;;19.08;100.00
49055;BME280;35405;52.344;14.530;2022-10-16T09:38:20;100782.81;;;19.15;100.00
49055;BME280;35405;52.344;14.530;2022-10-16T09:40:46;100772.59;;;19.15;100.00
49055;BME280;35405;52.344;14.530;2022-10-16T09:45:37;100776.72;;;19.22;100.00
49055;BME280;35405;52.344;14.530;2022-10-16T09:48:09;100786.13;;;19.33;100.00
49055;BME280;35405;52.344;14.530;2022-10-16T09:50:36;100791.63;;;19.33;100.00
49055;BME280;35405;52.344;14.530;2022-10-16T09:53:11;100802.66;;;19.33;100.00
49055;BME280;35405;52.344;14.530;2022-10-16T09:55:52;100807.97;;;19.38;100.00
49055;BME280;35405;52.344;14.530;2022-10-16T09:58:21;100805.06;;;19.34;100.00
49055;BME280;35405;52.344;14.530;2022-10-16T10:00:53;100800.38;;;19.35;100.00
49055;BME280;35405;52.344;14.530;2022-10-16T10:03:26;100814.19;;;19.23;100.00
49055;BME280;35405;52.344;14.530;2022-10-16T10:05:55;100824.53;;;19.01;100.00
49055;BME280;35405;52.344;14.530;2022-10-16T10:08:20;100829.78;;;18.69;100.00
49055;BME280;35405;52.344;14.530;2022-10-16T10:10:47;100821.13;;;18.46;100.00
49055;BME280;35405;52.344;14.530;2022-10-16T10:13:20;100823.34;;;18.65;100.00
49055;BME280;35405;52.344;14.530;2022-10-16T10:15:45;100828.53;;;19.28;100.00
49055;BME280;35405;52.344;14.530;2022-10-16T10:18:14;100828.13;;;19.54;100.00
49055;BME280;35405;52.344;14.530;2022-10-16T10:20:41;100832.13;;;19.16;100.00
49055;BME280;35405;52.344;14.530;2022-10-16T10:23:22;100833.63;;;19.14;100.00
49055;BME280;35405;52.344;14.530;2022-10-16T10:36:00;100838.53;;;19.33;100.00
49055;BME280;35405;52.344;14.530;2022-10-16T10:46:14;100829.00;;;19.06;100.00
49055;BME280;35405;52.344;14.530;2022-10-16T10:51:19;100840.75;;;18.90;100.00
49055;BME280;35405;52.344;14.530;2022-10-16T10:53:49;100849.13;;;19.06;100.00
49055;BME280;35405;52.344;14.530;2022-10-16T11:01:22;100840.72;;;19.27;100.00
49055;BME280;35405;52.344;14.530;2022-10-16T11:06:26;100837.00;;;19.48;100.00
49055;BME280;35405;52.344;14.530;2022-10-16T11:09:01;100844.47;;;19.59;100.00
49055;BME280;35405;52.344;14.530;2022-10-16T11:13:56;100858.94;;;19.69;100.00
49055;BME280;35405;52.344;14.530;2022-10-16T11:16:27;100851.09;;;19.58;100.00
49055;BME280;35405;52.344;14.530;2022-10-16T11:19:02;100862.53;;;19.45;100.00
49055;BME280;35405;52.344;14.530;2022-10-16T11:21:28;100867.84;;;19.37;100.00
49055;BME280;35405;52.344;14.530;2022-10-16T11:24:04;100865.31;;;19.32;100.00
49055;BME280;35405;52.344;14.530;2022-10-16T11:26:35;100870.69;;;19.41;100.00
49055;BME280;35405;52.344;14.530;2022-10-16T11:29:04;100865.63;;;19.68;100.00
49055;BME280;35405;52.344;14.530;2022-10-16T11:31:39;100871.81;;;20.05;100.00
49055;BME280;35405;52.344;14.530;2022-10-16T11:34:09;100866.69;;;19.91;100.00
49055;BME280;35405;52.344;14.530;2022-10-16T11:46:46;100882.03;;;19.64;100.00
49055;BME280;35405;52.344;14.530;2022-10-16T11:49:15;100871.50;;;19.94;100.00
49055;BME280;35405;52.344;14.530;2022-10-16T11:54:30;100879.50;;;20.12;100.00
49055;BME280;35405;52.344;14.530;2022-10-16T11:57:05;100890.59;;;19.99;100.00
49055;BME280;35405;52.344;14.530;2022-10-16T11:59:40;100888.13;;;19.57;100.00
49055;BME280;35405;52.344;14.530;2022-10-16T12:04:55;100887.00;;;19.34;100.00
49055;BME280;35405;52.344;14.530;2022-10-16T12:07:27;100877.19;;;19.61;100.00
49055;BME280;35405;52.344;14.530;2022-10-16T12:09:57;100888.84;;;19.67;100.00
49055;BME280;35405;52.344;14.530;2022-10-16T12:15:18;100880.44;;;19.63;100.00
49055;BME280;35405;52.344;14.530;2022-10-16T12:17:43;100876.59;;;19.92;100.00
49055;BME280;35405;52.344;14.530;2022-10-16T12:22:37;100892.56;;;19.99;100.00
49055;BME280;35405;52.344;14.530;2022-10-16T12:25:17;100891.16;;;20.05;100.00
49055;BME280;35405;52.344;14.530;2022-10-16T12:27:44;100896.50;;;19.85;100.00
49055;BME280;35405;52.344;14.530;2022-10-16T12:30:14;100900.53;;;19.76;100.00
49055;BME280;35405;52.344;14.530;2022-10-16T12:32:45;100894.72;;;19.53;100.00
49055;BME280;35405;52.344;14.530;2022-10-16T12:35:19;100906.19;;;19.42;100.00
49055;BME280;35405;52.344;14.530;2022-10-16T12:37:45;100920.34;;;19.41;100.00
49055;BME280;35405;52.344;14.530;2022-10-16T12:40:12;100915.16;;;19.15;100.00
49055;BME280;35405;52.344;14.530;2022-10-16T12:42:38;100918.22;;;18.89;100.00
49055;BME280;35405;52.344;14.530;2022-10-16T12:48:00;100923.47;;;18.69;100.00
49055;BME280;35405;52.344;14.530;2022-10-16T12:50:30;100922.34;;;18.83;100.00
49055;BME280;35405;52.344;14.530;2022-10-16T12:52:56;100914.47;;;19.06;100.00
49055;BME280;35405;52.344;14.530;2022-10-16T12:55:22;100924.94;;;19.25;100.00
49055;BME280;35405;52.344;14.530;2022-10-16T13:06:08;100931.94;;;19.22;100.00
49055;BME280;35405;52.344;14.530;2022-10-16T13:08:50;100927.69;;;19.12;100.00
49055;BME280;35405;52.344;14.530;2022-10-16T13:11:41;100925.63;;;19.09;100.00
49055;BME280;35405;52.344;14.530;2022-10-16T13:16:55;100929.19;;;19.10;100.00
49055;BME280;35405;52.344;14.530;2022-10-16T13:29:59;100956.91;;;18.80;100.00
49055;BME280;35405;52.344;14.530;2022-10-16T13:32:25;100954.97;;;18.81;100.00
49055;BME280;35405;52.344;14.530;2022-10-16T13:34:51;100957.38;;;18.82;100.00
49055;BME280;35405;52.344;14.530;2022-10-16T13:37:19;100964.66;;;18.87;100.00
49055;BME280;35405;52.344;14.530;2022-10-16T13:39:44;100966.72;;;18.90;100.00
49055;BME280;35405;52.344;14.530;2022-10-16T13:42:11;100961.41;;;18.85;100.00
49055;BME280;35405;52.344;14.530;2022-10-16T13:44:59;100955.56;;;18.86;100.00
49055;BME280;35405;52.344;14.530;2022-10-16T13:47:27;100959.94;;;18.87;100.00
49055;BME280;35405;52.344;14.530;2022-10-16T13:50:02;100960.13;;;18.82;100.00
49055;BME280;35405;52.344;14.530;2022-10-16T13:52:28;100976.00;;;18.85;100.00
49055;BME280;35405;52.344;14.530;2022-10-16T13:54:53;100964.38;;;18.80;100.00
49055;BME280;35405;52.344;14.530;2022-10-16T13:57:18;100980.22;;;18.83;100.00
49055;BME280;35405;52.344;14.530;2022-10-16T13:59:46;100981.38;;;18.82;100.00
49055;BME280;35405;52.344;14.530;2022-10-16T14:02:17;100980.78;;;18.76;100.00
49055;BME280;35405;52.344;14.530;2022-10-16T14:04:45;100982.88;;;18.79;100.00
49055;BME280;35405;52.344;14.530;2022-10-16T14:07:14;100985.31;;;18.81;100.00
49055;BME280;35405;52.344;14.530;2022-10-16T14:09:47;100982.28;;;18.73;100.00
49055;BME280;35405;52.344;14.530;2022-10-16T14:12:13;100983.91;;;18.75;100.00
49055;BME280;35405;52.344;14.530;2022-10-16T14:14:45;100982.75;;;18.76;100.00
49055;BME280;35405;52.344;14.530;2022-10-16T14:17:31;100976.50;;;18.66;100.00
49055;BME280;35405;52.344;14.530;2022-10-16T14:19:58;100985.44;;;18.63;100.00
49055;BME280;35405;52.344;14.530;2022-10-16T14:22:37;100981.59;;;18.56;100.00
49055;BME280;35405;52.344;14.530;2022-10-16T14:25:18;100976.78;;;18.52;100.00
49055;BME280;35405;52.344;14.530;2022-10-16T14:27:45;100977.53;;;18.41;100.00
49055;BME280;35405;52.344;14.530;2022-10-16T14:30:21;100983.84;;;18.41;100.00
49055;BME280;35405;52.344;14.530;2022-10-16T14:32:59;100981.91;;;18.42;100.00
49055;BME280;35405;52.344;14.530;2022-10-16T14:35:26;100986.50;;;18.50;100.00
49055;BME280;35405;52.344;14.530;2022-10-16T14:37:53;100991.44;;;18.44;100.00
49055;BME280;35405;52.344;14.530;2022-10-16T14:40:18;100999.59;;;18.53;100.00
49055;BME280;35405;52.344;14.530;2022-10-16T14:42:44;100997.53;;;18.50;100.00
49055;BME280;35405;52.344;14.530;2022-10-16T14:45:09;101002.09;;;18.46;100.00
49055;BME280;35405;52.344;14.530;2022-10-16T14:47:36;101006.41;;;18.35;100.00
49055;BME280;35405;52.344;14.530;2022-10-16T14:50:03;101002.66;;;18.18;100.00
49055;BME280;35405;52.344;14.530;2022-10-16T14:52:28;101006.75;;;18.12;100.00
49055;BME280;35405;52.344;14.530;2022-10-16T14:54:53;101006.19;;;17.98;100.00
49055;BME280;35405;52.344;14.530;2022-10-16T14:57:24;101009.13;;;17.93;100.00
49055;BME280;35405;52.344;14.530;2022-10-16T14:59:51;101006.06;;;17.94;100.00
49055;BME280;35405;52.344;14.530;2022-10-16T15:02:22;101013.66;;;17.97;100.00
49055;BME280;35405;52.344;14.530;2022-10-16T15:04:50;101019.03;;;17.94;100.00
49055;BME280;35405;52.344;14.530;2022-10-16T15:07:15;101026.47;;;17.93;100.00
49055;BME280;35405;52.344;14.530;2022-10-16T15:09:40;101032.03;;;17.85;100.00
49055;BME280;35405;52.344;14.530;2022-10-16T15:12:06;101033.97;;;17.75;100.00
49055;BME280;35405;52.344;14.530;2022-10-16T15:14:31;101030.25;;;17.71;100.00
49055;BME280;35405;52.344;14.530;2022-10-16T15:16:56;101030.31;;;17.63;100.00
49055;BME280;35405;52.344;14.530;2022-10-16T15:19:21;101031.47;;;17.53;100.00
49055;BME280;35405;52.344;14.530;2022-10-16T15:21:47;101034.47;;;17.39;100.00
49055;BME280;35405;52.344;14.530;2022-10-16T15:24:12;101036.09;;;17.31;100.00
49055;BME280;35405;52.344;14.530;2022-10-16T15:26:38;101040.31;;;17.20;100.00
49055;BME280;35405;52.344;14.530;2022-10-16T15:29:03;101038.25;;;17.08;100.00
49055;BME280;35405;52.344;14.530;2022-10-16T15:31:29;101037.00;;;16.97;100.00
49055;BME280;35405;52.344;14.530;2022-10-16T15:33:54;101046.84;;;16.89;100.00
49055;BME280;35405;52.344;14.530;2022-10-16T15:36:27;101045.25;;;16.80;100.00
49055;BME280;35405;52.344;14.530;2022-10-16T15:41:50;101039.88;;;16.57;100.00
49055;BME280;35405;52.344;14.530;2022-10-16T15:44:16;101042.16;;;16.46;100.00
49055;BME280;35405;52.344;14.530;2022-10-16T15:46:41;101053.44;;;16.36;100.00
49055;BME280;35405;52.344;14.530;2022-10-16T15:49:12;101048.63;;;16.25;100.00
49055;BME280;35405;52.344;14.530;2022-10-16T15:51:38;101058.44;;;16.17;100.00
49055;BME280;35405;52.344;14.530;2022-10-16T15:54:04;101054.22;;;16.11;100.00
49055;BME280;35405;52.344;14.530;2022-10-16T15:56:29;101062.13;;;16.04;100.00
49055;BME280;35405;52.344;14.530;2022-10-16T15:58:57;101064.50;;;15.96;100.00
49055;BME280;35405;52.344;14.530;2022-10-16T16:01:23;101071.91;;;15.87;100.00
49055;BME280;35405;52.344;14.530;2022-10-16T16:03:52;101074.44;;;15.75;100.00
49055;BME280;35405;52.344;14.530;2022-10-16T16:06:17;101067.13;;;15.62;100.00
49055;BME280;35405;52.344;14.530;2022-10-16T16:08:42;101069.66;;;15.49;100.00
49055;BME280;35405;52.344;14.530;2022-10-16T16:11:12;101072.34;;;15.41;100.00
49055;BME280;35405;52.344;14.530;2022-10-16T16:13:37;101073.91;;;15.33;100.00
49055;BME280;35405;52.344;14.530;2022-10-16T16:16:10;101081.13;;;15.29;100.00
49055;BME280;35405;52.344;14.530;2022-10-16T16:18:35;101084.81;;;15.24;100.00
49055;BME280;35405;52.344;14.530;2022-10-16T16:21:01;101087.47;;;15.16;100.00
49055;BME280;35405;52.344;14.530;2022-10-16T16:23:26;101091.00;;;15.07;100.00
49055;BME280;35405;52.344;14.530;2022-10-16T16:26:11;101094.16;;;15.01;100.00
49055;BME280;35405;52.344;14.530;2022-10-16T16:28:37;101098.53;;;15.02;100.00
49055;BME280;35405;52.344;14.530;2022-10-16T16:31:03;101101.25;;;15.02;100.00
49055;BME280;35405;52.344;14.530;2022-10-16T16:33:28;101105.09;;;15.01;100.00
49055;BME280;35405;52.344;14.530;2022-10-16T16:35:57;101108.00;;;14.96;100.00
49055;BME280;35405;52.344;14.530;2022-10-16T16:38:23;101108.59;;;14.93;100.00
49055;BME280;35405;52.344;14.530;2022-10-16T16:40:48;101120.81;;;14.86;100.00
49055;BME280;35405;52.344;14.530;2022-10-16T16:43:13;101118.78;;;14.78;100.00
49055;BME280;35405;52.344;14.530;2022-10-16T16:45:39;101131.97;;;14.76;100.00
49055;BME280;35405;52.344;14.530;2022-10-16T16:48:04;101139.50;;;14.71;100.00
49055;BME280;35405;52.344;14.530;2022-10-16T16:50:34;101145.59;;;14.68;100.00
49055;BME280;35405;52.344;14.530;2022-10-16T16:53:00;101142.97;;;14.62;100.00
49055;BME280;35405;52.344;14.530;2022-10-16T16:55:25;101147.25;;;14.55;100.00
49055;BME280;35405;52.344;14.530;2022-10-16T16:57:50;101151.50;;;14.47;100.00
49055;BME280;35405;52.344;14.530;2022-10-16T17:00:16;101150.47;;;14.43;100.00
49055;BME280;35405;52.344;14.530;2022-10-16T17:02:41;101160.41;;;14.39;100.00
49055;BME280;35405;52.344;14.530;2022-10-16T17:05:08;101162.97;;;14.35;100.00
49055;BME280;35405;52.344;14.530;2022-10-16T17:07:34;101172.88;;;14.31;100.00
49055;BME280;35405;52.344;14.530;2022-10-16T17:10:00;101176.22;;;14.28;100.00
49055;BME280;35405;52.344;14.530;2022-10-16T17:12:25;101180.38;;;14.26;100.00
49055;BME280;35405;52.344;14.530;2022-10-16T17:14:50;101171.16;;;14.22;100.00
49055;BME280;35405;52.344;14.530;2022-10-16T17:17:15;101173.38;;;14.19;100.00
49055;BME280;35405;52.344;14.530;2022-10-16T17:19:41;101177.84;;;14.15;100.00
49055;BME280;35405;52.344;14.530;2022-10-16T17:22:06;101180.56;;;14.15;100.00
49055;BME280;35405;52.344;14.530;2022-10-16T17:24:31;101181.09;;;14.17;100.00
49055;BME280;35405;52.344;14.530;2022-10-16T17:26:57;101191.59;;;14.10;100.00
49055;BME280;35405;52.344;14.530;2022-10-16T17:29:22;101193.34;;;14.06;100.00
49055;BME280;35405;52.344;14.530;2022-10-16T17:31:47;101202.75;;;14.00;100.00
49055;BME280;35405;52.344;14.530;2022-10-16T17:34:16;101201.22;;;13.94;100.00
49055;BME280;35405;52.344;14.530;2022-10-16T17:36:41;101204.84;;;13.89;100.00
49055;BME280;35405;52.344;14.530;2022-10-16T17:39:08;101215.78;;;13.89;100.00
49055;BME280;35405;52.344;14.530;2022-10-16T17:41:35;101221.56;;;13.88;100.00
49055;BME280;35405;52.344;14.530;2022-10-16T17:44:00;101226.72;;;13.89;100.00
49055;BME280;35405;52.344;14.530;2022-10-16T17:46:25;101229.69;;;13.93;100.00
49055;BME280;35405;52.344;14.530;2022-10-16T17:48:51;101224.63;;;14.00;100.00
49055;BME280;35405;52.344;14.530;2022-10-16T17:51:24;101231.72;;;14.01;100.00
49055;BME280;35405;52.344;14.530;2022-10-16T17:53:50;101241.03;;;14.00;100.00
49055;BME280;35405;52.344;14.530;2022-10-16T17:56:16;101234.44;;;14.01;100.00
49055;BME280;35405;52.344;14.530;2022-10-16T17:58:41;101237.78;;;13.98;100.00
49055;BME280;35405;52.344;14.530;2022-10-16T18:01:11;101234.25;;;13.98;100.00
49055;BME280;35405;52.344;14.530;2022-10-16T18:03:36;101236.97;;;13.98;100.00
49055;BME280;35405;52.344;14.530;2022-10-16T18:09:05;101243.56;;;13.97;100.00
49055;BME280;35405;52.344;14.530;2022-10-16T18:11:30;101254.91;;;13.90;100.00
49055;BME280;35405;52.344;14.530;2022-10-16T18:13:56;101261.53;;;13.84;100.00
49055;BME280;35405;52.344;14.530;2022-10-16T18:16:22;101261.53;;;13.84;100.00
49055;BME280;35405;52.344;14.530;2022-10-16T18:18:48;101267.59;;;13.81;100.00
49055;BME280;35405;52.344;14.530;2022-10-16T18:21:14;101262.31;;;13.70;100.00
49055;BME280;35405;52.344;14.530;2022-10-16T18:23:40;101254.78;;;13.62;100.00
49055;BME280;35405;52.344;14.530;2022-10-16T18:26:06;101268.63;;;13.52;100.00
49055;BME280;35405;52.344;14.530;2022-10-16T18:28:31;101268.69;;;13.47;100.00
49055;BME280;35405;52.344;14.530;2022-10-16T18:30:57;101262.28;;;13.38;100.00
49055;BME280;35405;52.344;14.530;2022-10-16T18:33:23;101265.06;;;13.33;100.00
49055;BME280;35405;52.344;14.530;2022-10-16T18:35:49;101273.94;;;13.24;100.00
49055;BME280;35405;52.344;14.530;2022-10-16T18:38:14;101275.69;;;13.15;100.00
49055;BME280;35405;52.344;14.530;2022-10-16T18:40:40;101273.88;;;13.05;100.00
49055;BME280;35405;52.344;14.530;2022-10-16T18:43:05;101272.59;;;13.03;100.00
49055;BME280;35405;52.344;14.530;2022-10-16T18:45:30;101278.91;;;12.98;100.00
49055;BME280;35405;52.344;14.530;2022-10-16T18:47:56;101278.38;;;12.96;100.00
49055;BME280;35405;52.344;14.530;2022-10-16T18:50:21;101274.09;;;12.90;100.00
49055;BME280;35405;52.344;14.530;2022-10-16T18:52:47;101283.19;;;12.86;100.00
49055;BME280;35405;52.344;14.530;2022-10-16T18:55:14;101278.56;;;12.81;100.00
49055;BME280;35405;52.344;14.530;2022-10-16T18:57:40;101287.34;;;12.78;100.00
49055;BME280;35405;52.344;14.530;2022-10-16T19:00:14;101285.50;;;12.73;100.00
49055;BME280;35405;52.344;14.530;2022-10-16T19:02:39;101284.41;;;12.74;100.00
49055;BME280;35405;52.344;14.530;2022-10-16T19:05:04;101278.88;;;12.79;100.00
49055;BME280;35405;52.344;14.530;2022-10-16T19:07:30;101287.25;;;12.88;100.00
49055;BME280;35405;52.344;14.530;2022-10-16T19:09:55;101299.50;;;12.91;100.00
49055;BME280;35405;52.344;14.530;2022-10-16T19:12:20;101301.16;;;12.87;100.00
49055;BME280;35405;52.344;14.530;2022-10-16T19:14:48;101299.03;;;12.84;100.00
49055;BME280;35405;52.344;14.530;2022-10-16T19:17:13;101297.09;;;12.84;100.00
49055;BME280;35405;52.344;14.530;2022-10-16T19:19:39;101294.91;;;12.86;100.00
49055;BME280;35405;52.344;14.530;2022-10-16T19:22:04;101296.88;;;12.80;100.00
49055;BME280;35405;52.344;14.530;2022-10-16T19:24:38;101300.78;;;12.74;100.00
49055;BME280;35405;52.344;14.530;2022-10-16T19:27:03;101303.84;;;12.68;100.00
49055;BME280;35405;52.344;14.530;2022-10-16T19:29:29;101315.06;;;12.66;100.00
49055;BME280;35405;52.344;14.530;2022-10-16T19:31:55;101322.19;;;12.62;100.00
49055;BME280;35405;52.344;14.530;2022-10-16T19:34:20;101314.06;;;12.57;100.00
49055;BME280;35405;52.344;14.530;2022-10-16T19:36:45;101322.56;;;12.55;100.00
49055;BME280;35405;52.344;14.530;2022-10-16T19:39:12;101328.34;;;12.49;100.00
49055;BME280;35405;52.344;14.530;2022-10-16T19:41:37;101309.06;;;12.40;100.00
49055;BME280;35405;52.344;14.530;2022-10-16T19:44:04;101316.19;;;12.36;100.00
49055;BME280;35405;52.344;14.530;2022-10-16T19:46:30;101312.13;;;12.33;100.00
49055;BME280;35405;52.344;14.530;2022-10-16T19:48:56;101311.06;;;12.29;100.00
49055;BME280;35405;52.344;14.530;2022-10-16T19:51:22;101306.91;;;12.37;100.00
49055;BME280;35405;52.344;14.530;2022-10-16T19:53:47;101305.81;;;12.38;100.00
49055;BME280;35405;52.344;14.530;2022-10-16T19:56:17;101304.53;;;12.30;100.00
